createdAt,value
2023-03-22T00:01:14.658Z,54.40
2023-03-22T00:03:43.006Z,54.30
2023-03-22T00:06:10.508Z,54.90
2023-03-22T00:08:38.114Z,54.70
2023-03-22T00:11:06.587Z,54.40
2023-03-22T00:13:35.815Z,54.40
2023-03-22T00:16:04.432Z,54.40
2023-03-22T00:18:31.639Z,54.40
2023-03-22T00:21:00.563Z,54.40
2023-03-22T00:23:28.924Z,54.30
2023-03-22T00:25:56.686Z,55.60
2023-03-22T00:28:24.242Z,56.50
2023-03-22T00:30:57.660Z,55.70
2023-03-22T00:33:24.992Z,55.20
2023-03-22T00:35:55.005Z,55.00
2023-03-22T00:38:32.541Z,55.00
2023-03-22T00:41:23.475Z,55.00
2023-03-22T00:43:51.647Z,55.50
2023-03-22T00:46:20.991Z,54.80
2023-03-22T00:48:48.853Z,54.70
2023-03-22T00:51:17.004Z,54.60
2023-03-22T00:53:44.408Z,54.60
2023-03-22T00:56:16.140Z,54.50
2023-03-22T00:58:43.806Z,54.40
2023-03-22T01:01:14.860Z,54.60
2023-03-22T01:03:43.619Z,55.00
2023-03-22T01:06:11.282Z,54.70
2023-03-22T01:08:39.238Z,54.60
2023-03-22T01:11:08.205Z,54.60
2023-03-22T01:13:41.782Z,54.80
2023-03-22T01:16:10.490Z,54.70
2023-03-22T01:18:37.742Z,54.60
2023-03-22T01:21:05.269Z,54.50
2023-03-22T01:23:32.439Z,55.30
2023-03-22T01:25:59.749Z,54.70
2023-03-22T01:28:27.545Z,54.70
2023-03-22T01:30:55.625Z,54.60
2023-03-22T01:33:22.991Z,54.80
2023-03-22T01:35:50.102Z,54.60
2023-03-22T01:38:17.400Z,54.70
2023-03-22T01:40:44.549Z,55.00
2023-03-22T01:43:17.207Z,54.90
2023-03-22T01:45:48.335Z,55.40
2023-03-22T01:48:17.678Z,55.40
2023-03-22T01:50:56.215Z,55.30
2023-03-22T01:53:26.094Z,55.30
2023-03-22T01:55:55.608Z,55.20
2023-03-22T01:58:22.761Z,55.10
2023-03-22T02:00:51.589Z,55.20
2023-03-22T02:03:29.411Z,55.30
2023-03-22T02:05:57.190Z,55.30
2023-03-22T02:08:24.535Z,55.30
2023-03-22T02:10:52.040Z,55.70
2023-03-22T02:13:48.004Z,55.30
2023-03-22T02:16:34.800Z,56.70
2023-03-22T02:19:29.388Z,56.00
2023-03-22T02:22:06.653Z,55.60
2023-03-22T02:25:11.011Z,55.50
2023-03-22T02:28:05.065Z,55.50
2023-03-22T02:31:01.522Z,55.70
2023-03-22T02:33:41.788Z,55.80
2023-03-22T02:36:12.183Z,55.70
2023-03-22T02:38:58.003Z,55.70
2023-03-22T02:41:36.556Z,55.70
2023-03-22T02:44:21.603Z,55.60
2023-03-22T02:47:07.745Z,55.90
2023-03-22T02:49:43.991Z,55.90
2023-03-22T02:52:29.503Z,55.70
2023-03-22T02:55:08.079Z,55.70
2023-03-22T02:57:35.435Z,55.90
2023-03-22T03:00:10.510Z,55.70
2023-03-22T03:02:42.242Z,55.70
2023-03-22T03:05:12.080Z,55.70
2023-03-22T03:07:41.666Z,55.70
2023-03-22T03:10:09.732Z,55.90
2023-03-22T03:12:36.889Z,55.70
2023-03-22T03:15:13.922Z,55.80
2023-03-22T03:18:13.774Z,55.70
2023-03-22T03:21:04.555Z,55.90
2023-03-22T03:23:50.327Z,55.90
2023-03-22T03:26:33.529Z,55.80
2023-03-22T03:29:06.221Z,55.80
2023-03-22T03:31:47.855Z,55.80
2023-03-22T03:34:46.042Z,56.20
2023-03-22T03:37:17.853Z,55.90
2023-03-22T03:39:53.007Z,55.90
2023-03-22T03:42:23.893Z,55.90
2023-03-22T03:44:51.149Z,56.00
2023-03-22T03:47:19.068Z,56.40
2023-03-22T03:49:46.257Z,56.40
2023-03-22T03:52:13.510Z,56.50
2023-03-22T03:54:41.171Z,56.40
2023-03-22T03:57:08.491Z,56.20
2023-03-22T03:59:35.893Z,56.30
2023-03-22T04:02:03.080Z,56.60
2023-03-22T04:04:30.308Z,56.60
2023-03-22T04:06:59.736Z,56.50
2023-03-22T04:09:29.250Z,56.40
2023-03-22T04:11:57.592Z,56.30
2023-03-22T04:14:26.068Z,56.40
2023-03-22T04:16:54.182Z,56.60
2023-03-22T04:19:22.336Z,56.30
2023-03-22T04:21:49.473Z,56.30
2023-03-22T04:24:16.608Z,56.30
2023-03-22T04:26:43.793Z,56.30
2023-03-22T04:29:10.914Z,56.40
2023-03-22T04:31:39.151Z,56.40
2023-03-22T04:34:06.878Z,56.40
2023-03-22T04:36:39.780Z,56.40
2023-03-22T04:39:09.482Z,56.50
2023-03-22T04:41:37.225Z,56.40
2023-03-22T04:44:06.204Z,56.40
2023-03-22T04:46:35.980Z,57.20
2023-03-22T04:49:04.695Z,56.80
2023-03-22T04:51:32.262Z,56.70
2023-03-22T04:54:00.198Z,56.50
2023-03-22T04:56:27.341Z,56.80
2023-03-22T04:58:54.447Z,56.60
2023-03-22T05:01:21.908Z,56.90
2023-03-22T05:03:49.014Z,57.00
2023-03-22T05:06:16.137Z,56.80
2023-03-22T05:08:43.267Z,56.60
2023-03-22T05:11:15.040Z,57.00
2023-03-22T05:13:42.812Z,56.60
2023-03-22T05:16:10.866Z,56.60
2023-03-22T05:18:42.508Z,56.30
2023-03-22T05:21:17.961Z,56.40
2023-03-22T05:23:45.922Z,56.30
2023-03-22T05:26:16.230Z,56.20
2023-03-22T05:28:43.857Z,56.20
2023-03-22T05:31:11.922Z,56.20
2023-03-22T05:33:39.316Z,56.20
2023-03-22T05:36:11.395Z,56.20
2023-03-22T05:38:38.588Z,56.20
2023-03-22T05:41:06.098Z,56.80
2023-03-22T05:43:33.664Z,56.20
2023-03-22T05:46:01.075Z,56.20
2023-03-22T05:48:28.120Z,56.20
2023-03-22T05:50:55.582Z,56.40
2023-03-22T05:53:22.664Z,56.60
2023-03-22T05:55:49.736Z,56.60
2023-03-22T05:58:19.230Z,56.50
2023-03-22T06:00:50.012Z,56.70
2023-03-22T06:03:18.418Z,56.60
2023-03-22T06:05:46.690Z,56.60
2023-03-22T06:08:13.808Z,56.60
2023-03-22T06:10:41.195Z,56.50
2023-03-22T06:13:08.578Z,56.50
2023-03-22T06:15:35.785Z,56.50
2023-03-22T06:18:02.934Z,56.50
2023-03-22T06:20:29.984Z,56.50
2023-03-22T06:22:57.317Z,56.50
2023-03-22T06:25:24.547Z,56.50
2023-03-22T06:27:51.678Z,56.60
2023-03-22T06:30:19.236Z,56.80
2023-03-22T06:32:46.346Z,56.70
2023-03-22T06:35:13.508Z,56.60
2023-03-22T06:37:40.694Z,56.50
2023-03-22T06:40:08.637Z,56.50
2023-03-22T06:42:37.044Z,56.40
2023-03-22T06:45:04.830Z,56.40
2023-03-22T06:47:31.924Z,56.20
2023-03-22T06:49:59.030Z,56.20
2023-03-22T06:52:35.369Z,56.20
2023-03-22T06:55:02.443Z,55.70
2023-03-22T06:57:29.526Z,55.80
2023-03-22T06:59:56.584Z,55.60
2023-03-22T07:02:23.745Z,54.90
2023-03-22T07:04:50.988Z,55.20
2023-03-22T07:07:18.157Z,55.10
2023-03-22T07:09:46.410Z,55.10
2023-03-22T07:12:16.126Z,55.20
2023-03-22T07:14:44.926Z,55.20
2023-03-22T07:17:14.367Z,55.10
2023-03-22T07:19:42.885Z,55.00
2023-03-22T07:22:10.029Z,55.00
2023-03-22T07:24:44.661Z,54.90
2023-03-22T07:27:19.902Z,55.00
2023-03-22T07:29:47.049Z,54.80
2023-03-22T07:32:14.525Z,54.80
2023-03-22T07:34:41.695Z,54.90
2023-03-22T07:37:09.975Z,54.50
2023-03-22T07:39:37.217Z,54.50
2023-03-22T07:42:04.417Z,54.10
2023-03-22T07:44:31.549Z,54.10
2023-03-22T07:46:58.624Z,54.30
2023-03-22T07:49:26.844Z,54.20
2023-03-22T07:51:54.049Z,54.20
2023-03-22T07:54:32.927Z,53.60
2023-03-22T07:57:01.356Z,53.80
2023-03-22T07:59:28.746Z,53.80
2023-03-22T08:01:55.966Z,53.60
2023-03-22T08:04:23.397Z,53.40
2023-03-22T08:06:51.427Z,53.70
2023-03-22T08:09:18.583Z,53.60
2023-03-22T08:11:45.798Z,54.20
2023-03-22T08:14:14.141Z,53.30
2023-03-22T08:16:43.430Z,53.30
2023-03-22T08:19:11.234Z,53.10
2023-03-22T08:21:38.858Z,53.20
2023-03-22T08:24:06.383Z,52.90
2023-03-22T08:26:33.516Z,52.60
2023-03-22T08:29:00.807Z,52.60
2023-03-22T08:31:31.722Z,52.50
2023-03-22T08:33:58.921Z,52.60
2023-03-22T08:36:29.159Z,52.30
2023-03-22T08:38:59.538Z,52.20
2023-03-22T08:41:26.657Z,52.20
2023-03-22T08:43:53.859Z,52.30
2023-03-22T08:46:21.086Z,52.20
2023-03-22T08:48:53.225Z,52.10
2023-03-22T08:51:22.383Z,51.40
2023-03-22T08:53:50.265Z,52.10
2023-03-22T08:56:17.896Z,51.50
2023-03-22T08:58:46.833Z,51.40
2023-03-22T09:01:15.196Z,51.60
2023-03-22T09:03:42.934Z,51.20
2023-03-22T09:06:11.161Z,51.20
2023-03-22T09:08:38.414Z,51.10
2023-03-22T09:11:09.328Z,51.20
2023-03-22T09:13:36.439Z,51.10
2023-03-22T09:16:05.043Z,50.90
2023-03-22T09:18:33.397Z,50.30
2023-03-22T09:21:00.641Z,50.60
2023-03-22T09:23:29.078Z,50.30
2023-03-22T09:25:56.191Z,50.80
2023-03-22T09:28:24.244Z,50.30
2023-03-22T09:30:52.507Z,50.60
2023-03-22T09:33:19.606Z,50.40
2023-03-22T09:35:46.698Z,50.00
2023-03-22T09:38:13.942Z,49.50
2023-03-22T09:41:00.505Z,49.20
2023-03-22T09:43:36.203Z,49.30
2023-03-22T09:46:08.054Z,48.00
2023-03-22T09:48:39.096Z,48.60
2023-03-22T09:51:13.985Z,48.40
2023-03-22T09:53:41.164Z,48.10
2023-03-22T09:56:20.739Z,48.30
2023-03-22T09:59:12.410Z,48.10
2023-03-22T10:01:44.881Z,48.70
2023-03-22T10:04:41.450Z,47.80
2023-03-22T10:07:31.333Z,48.40
2023-03-22T10:10:06.303Z,46.90
2023-03-22T10:13:10.741Z,47.60
2023-03-22T10:15:42.782Z,48.40
2023-03-22T10:18:18.350Z,48.00
2023-03-22T10:21:04.504Z,48.20
2023-03-22T10:23:34.472Z,48.30
2023-03-22T10:26:04.116Z,47.70
2023-03-22T10:28:38.642Z,47.50
2023-03-22T10:31:07.255Z,47.40
2023-03-22T10:33:37.356Z,47.00
2023-03-22T10:36:08.250Z,47.10
2023-03-22T10:38:40.605Z,47.60
2023-03-22T10:41:09.770Z,47.70
2023-03-22T10:43:39.470Z,47.60
2023-03-22T10:46:12.999Z,47.40
2023-03-22T10:48:43.878Z,47.10
2023-03-22T10:51:40.791Z,46.90
2023-03-22T10:54:13.425Z,46.90
2023-03-22T10:56:41.009Z,46.70
2023-03-22T10:59:11.909Z,46.80
2023-03-22T11:01:44.966Z,46.70
2023-03-22T11:04:16.729Z,46.80
2023-03-22T11:06:54.873Z,47.00
2023-03-22T11:09:24.359Z,46.80
2023-03-22T11:11:53.593Z,46.50
2023-03-22T11:14:23.797Z,45.50
2023-03-22T11:17:20.378Z,45.10
2023-03-22T11:19:57.954Z,46.30
2023-03-22T11:22:37.719Z,46.10
2023-03-22T11:25:17.541Z,46.10
2023-03-22T11:27:57.064Z,45.40
2023-03-22T11:30:29.213Z,45.90
2023-03-22T11:33:05.992Z,44.70
2023-03-22T11:35:35.414Z,45.40
2023-03-22T11:38:02.888Z,45.90
2023-03-22T11:40:32.625Z,45.10
2023-03-22T11:43:37.429Z,45.80
2023-03-22T11:46:08.151Z,45.70
2023-03-22T11:48:36.619Z,44.50
2023-03-22T11:51:10.661Z,44.20
2023-03-22T11:53:41.160Z,44.40
2023-03-22T11:56:12.530Z,44.80
2023-03-22T11:58:42.601Z,44.50
2023-03-22T12:01:21.632Z,44.40
2023-03-22T12:03:57.440Z,44.50
2023-03-22T12:06:29.936Z,44.90
2023-03-22T12:09:03.953Z,43.80
2023-03-22T12:11:39.286Z,43.70
2023-03-22T12:14:35.550Z,43.90
2023-03-22T12:17:20.722Z,43.60
2023-03-22T12:20:15.961Z,43.40
2023-03-22T12:22:51.188Z,42.70
2023-03-22T12:25:27.132Z,44.00
2023-03-22T12:28:02.211Z,43.40
2023-03-22T12:30:42.639Z,43.80
2023-03-22T12:33:19.557Z,43.80
2023-03-22T12:35:48.718Z,42.20
2023-03-22T12:38:28.235Z,43.50
2023-03-22T12:40:59.940Z,43.60
2023-03-22T12:43:42.277Z,42.10
2023-03-22T12:46:18.064Z,43.00
2023-03-22T12:48:58.877Z,43.10
2023-03-22T12:51:26.207Z,41.30
2023-03-22T12:53:58.558Z,41.40
2023-03-22T12:56:46.554Z,41.10
2023-03-22T12:59:34.903Z,41.80
2023-03-22T13:02:19.681Z,42.10
2023-03-22T13:04:52.061Z,41.30
2023-03-22T13:07:31.096Z,40.40
2023-03-22T13:09:59.878Z,41.80
2023-03-22T13:12:30.752Z,40.90
2023-03-22T13:15:28.345Z,41.30
2023-03-22T13:17:59.101Z,41.00
2023-03-22T13:20:28.197Z,41.30
2023-03-22T13:22:58.483Z,41.50
2023-03-22T13:25:30.020Z,41.40
2023-03-22T13:27:58.650Z,41.70
2023-03-22T13:30:44.195Z,41.60
2023-03-22T13:33:11.661Z,41.40
2023-03-22T13:35:46.014Z,41.90
2023-03-22T13:38:21.062Z,41.70
2023-03-22T13:41:08.082Z,41.60
2023-03-22T13:43:55.425Z,41.30
2023-03-22T13:46:22.650Z,41.10
2023-03-22T13:48:50.761Z,41.10
2023-03-22T13:51:25.476Z,41.10
2023-03-22T13:54:16.373Z,41.60
2023-03-22T13:56:56.382Z,41.30
2023-03-22T13:59:23.492Z,41.70
2023-03-22T14:02:01.596Z,41.70
2023-03-22T14:04:41.031Z,41.20
2023-03-22T14:07:26.541Z,41.10
2023-03-22T14:09:57.547Z,41.60
2023-03-22T14:12:28.456Z,41.60
2023-03-22T14:15:00.389Z,41.30
2023-03-22T14:17:50.798Z,41.90
2023-03-22T14:20:21.614Z,41.50
